sensor_id;sensor_type;location;lat;lon;timestamp;pressure;altitude;pressure_sealevel;temperature;humidity
59654;BME280;45496;52.010;5.418;2022-07-05T00:00:43;102105.0;;;32.14;27.31
59654;BME280;45496;52.010;5.418;2022-07-05T00:02:30;102105.0;;;32.14;27.39
59654;BME280;45496;52.010;5.418;2022-07-05T00:06:05;102103.0;;;32.25;27.26
59654;BME280;45496;52.010;5.418;2022-07-05T00:07:51;102106.0;;;32.43;26.99
59654;BME280;45496;52.010;5.418;2022-07-05T00:09:39;102108.0;;;32.28;27.11
59654;BME280;45496;52.010;5.418;2022-07-05T00:11:25;102112.0;;;32.49;26.83
59654;BME280;45496;52.010;5.418;2022-07-05T00:13:13;102108.0;;;32.6;26.35
59654;BME280;45496;52.010;5.418;2022-07-05T00:15:00;102107.0;;;32.62;26.24
59654;BME280;45496;52.010;5.418;2022-07-05T00:18:35;102107.0;;;32.44;26.41
59654;BME280;45496;52.010;5.418;2022-07-05T00:20:21;102106.0;;;32.17;26.85
59654;BME280;45496;52.010;5.418;2022-07-05T00:22:08;102111.0;;;31.33;28.09
59654;BME280;45496;52.010;5.418;2022-07-05T00:23:55;102111.0;;;31.24;28.1
59654;BME280;45496;52.010;5.418;2022-07-05T00:25:41;102113.0;;;31.52;27.62
59654;BME280;45496;52.010;5.418;2022-07-05T00:27:28;102114.0;;;31.81;27.33
59654;BME280;45496;52.010;5.418;2022-07-05T00:31:01;102113.0;;;32.53;26.33
59654;BME280;45496;52.010;5.418;2022-07-05T00:32:47;102105.0;;;32.17;26.71
59654;BME280;45496;52.010;5.418;2022-07-05T00:34:34;102107.0;;;32.08;26.76
59654;BME280;45496;52.010;5.418;2022-07-05T00:36:20;102110.0;;;31.75;27.37
59654;BME280;45496;52.010;5.418;2022-07-05T00:38:07;102111.0;;;31.33;27.73
59654;BME280;45496;52.010;5.418;2022-07-05T00:39:54;102118.0;;;31.69;27.41
59654;BME280;45496;52.010;5.418;2022-07-05T00:43:27;102114.0;;;31.73;27.38
59654;BME280;45496;52.010;5.418;2022-07-05T00:45:14;102114.0;;;31.73;27.38
59654;BME280;45496;52.010;5.418;2022-07-05T00:47:04;102110.0;;;31.39;27.86
59654;BME280;45496;52.010;5.418;2022-07-05T00:48:51;102107.0;;;31.17;28.12
59654;BME280;45496;52.010;5.418;2022-07-05T00:50:43;102110.0;;;31.4;27.85
59654;BME280;45496;52.010;5.418;2022-07-05T00:52:29;102107.0;;;31.5;27.79
59654;BME280;45496;52.010;5.418;2022-07-05T00:56:04;102105.0;;;31.65;27.7
59654;BME280;45496;52.010;5.418;2022-07-05T00:57:51;102111.0;;;32.03;27.1
59654;BME280;45496;52.010;5.418;2022-07-05T00:59:38;102106.0;;;32.15;26.96
59654;BME280;45496;52.010;5.418;2022-07-05T01:01:26;102107.0;;;32.28;26.69
59654;BME280;45496;52.010;5.418;2022-07-05T01:03:13;102112.0;;;32.21;26.83
59654;BME280;45496;52.010;5.418;2022-07-05T01:06:48;102106.0;;;31.99;27.22
59654;BME280;45496;52.010;5.418;2022-07-05T01:08:38;102105.0;;;31.84;27.37
59654;BME280;45496;52.010;5.418;2022-07-05T01:10:26;102097.0;;;32.01;27.01
59654;BME280;45496;52.010;5.418;2022-07-05T01:12:13;102105.0;;;31.82;27.32
59654;BME280;45496;52.010;5.418;2022-07-05T01:14:02;102101.0;;;31.56;27.69
59654;BME280;45496;52.010;5.418;2022-07-05T01:15:48;102102.0;;;31.49;27.88
59654;BME280;45496;52.010;5.418;2022-07-05T01:17:37;102103.0;;;31.56;27.8
59654;BME280;45496;52.010;5.418;2022-07-05T01:21:12;102105.0;;;31.46;27.79
59654;BME280;45496;52.010;5.418;2022-07-05T01:23:01;102109.0;;;31.57;27.55
59654;BME280;45496;52.010;5.418;2022-07-05T01:24:49;102107.0;;;31.58;27.61
59654;BME280;45496;52.010;5.418;2022-07-05T01:26:36;102103.0;;;31.62;27.43
59654;BME280;45496;52.010;5.418;2022-07-05T01:28:24;102109.0;;;31.73;27.19
59654;BME280;45496;52.010;5.418;2022-07-05T01:30:11;102105.0;;;31.73;27.14
59654;BME280;45496;52.010;5.418;2022-07-05T01:33:44;102105.0;;;31.9;27.0
59654;BME280;45496;52.010;5.418;2022-07-05T01:35:30;102108.0;;;31.84;27.04
59654;BME280;45496;52.010;5.418;2022-07-05T01:37:17;102108.0;;;31.78;26.95
59654;BME280;45496;52.010;5.418;2022-07-05T01:39:05;102103.0;;;31.88;26.78
59654;BME280;45496;52.010;5.418;2022-07-05T01:40:53;102100.0;;;31.9;26.66
59654;BME280;45496;52.010;5.418;2022-07-05T01:44:26;102102.0;;;31.69;26.99
59654;BME280;45496;52.010;5.418;2022-07-05T01:46:15;102093.0;;;31.1;28.05
59654;BME280;45496;52.010;5.418;2022-07-05T01:48:05;102094.0;;;30.56;28.68
59654;BME280;45496;52.010;5.418;2022-07-05T01:49:54;102096.0;;;30.45;28.9
59654;BME280;45496;52.010;5.418;2022-07-05T01:51:48;102105.0;;;31.2;27.93
59654;BME280;45496;52.010;5.418;2022-07-05T01:53:39;102109.0;;;31.53;27.31
59654;BME280;45496;52.010;5.418;2022-07-05T01:55:26;102110.0;;;31.61;26.94
59654;BME280;45496;52.010;5.418;2022-07-05T01:59:00;102100.0;;;31.39;27.06
59654;BME280;45496;52.010;5.418;2022-07-05T02:00:49;102100.0;;;30.98;27.89
59654;BME280;45496;52.010;5.418;2022-07-05T02:02:39;102100.0;;;31.23;27.36
59654;BME280;45496;52.010;5.418;2022-07-05T02:04:28;102103.0;;;31.32;27.37
59654;BME280;45496;52.010;5.418;2022-07-05T02:06:14;102100.0;;;31.23;27.5
59654;BME280;45496;52.010;5.418;2022-07-05T02:08:01;102096.0;;;30.66;28.26
59654;BME280;45496;52.010;5.418;2022-07-05T02:11:33;102093.0;;;30.47;28.72
59654;BME280;45496;52.010;5.418;2022-07-05T02:13:21;102096.0;;;30.2;28.94
59654;BME280;45496;52.010;5.418;2022-07-05T02:15:08;102095.0;;;30.7;28.29
59654;BME280;45496;52.010;5.418;2022-07-05T02:16:55;102102.0;;;31.06;27.99
59654;BME280;45496;52.010;5.418;2022-07-05T02:18:41;102105.0;;;31.28;27.62
59654;BME280;45496;52.010;5.418;2022-07-05T02:20:27;102098.0;;;31.15;27.74
59654;BME280;45496;52.010;5.418;2022-07-05T02:24:00;102102.0;;;31.31;27.54
59654;BME280;45496;52.010;5.418;2022-07-05T02:25:46;102100.0;;;31.23;27.7
59654;BME280;45496;52.010;5.418;2022-07-05T02:27:32;102100.0;;;30.63;28.65
59654;BME280;45496;52.010;5.418;2022-07-05T02:29:19;102100.0;;;30.96;28.17
59654;BME280;45496;52.010;5.418;2022-07-05T02:31:05;102108.0;;;31.43;27.49
59654;BME280;45496;52.010;5.418;2022-07-05T02:34:37;102106.0;;;31.15;27.81
59654;BME280;45496;52.010;5.418;2022-07-05T02:36:25;102113.0;;;30.48;28.72
59654;BME280;45496;52.010;5.418;2022-07-05T02:38:12;102112.0;;;30.22;28.95
59654;BME280;45496;52.010;5.418;2022-07-05T02:39:58;102111.0;;;30.26;28.91
59654;BME280;45496;52.010;5.418;2022-07-05T02:41:44;102112.0;;;30.17;29.09
59654;BME280;45496;52.010;5.418;2022-07-05T02:43:31;102106.0;;;30.37;28.84
59654;BME280;45496;52.010;5.418;2022-07-05T02:47:05;102107.0;;;30.96;28.12
59654;BME280;45496;52.010;5.418;2022-07-05T02:48:51;102106.0;;;31.17;27.93
59654;BME280;45496;52.010;5.418;2022-07-05T02:50:38;102102.0;;;31.3;27.88
59654;BME280;45496;52.010;5.418;2022-07-05T02:52:24;102103.0;;;31.58;27.53
59654;BME280;45496;52.010;5.418;2022-07-05T02:54:11;102106.0;;;31.35;27.58
59654;BME280;45496;52.010;5.418;2022-07-05T02:55:57;102112.0;;;31.53;27.48
59654;BME280;45496;52.010;5.418;2022-07-05T02:59:31;102114.0;;;31.38;27.63
59654;BME280;45496;52.010;5.418;2022-07-05T03:01:18;102110.0;;;30.51;28.97
59654;BME280;45496;52.010;5.418;2022-07-05T03:03:05;102114.0;;;30.16;29.82
59654;BME280;45496;52.010;5.418;2022-07-05T03:04:52;102116.0;;;30.45;29.43
59654;BME280;45496;52.010;5.418;2022-07-05T03:06:39;102113.0;;;30.75;29.08
59654;BME280;45496;52.010;5.418;2022-07-05T03:08:26;102116.0;;;31.27;28.36
59654;BME280;45496;52.010;5.418;2022-07-05T03:11:58;102121.0;;;31.25;28.36
59654;BME280;45496;52.010;5.418;2022-07-05T03:13:44;102118.0;;;32.08;27.19
59654;BME280;45496;52.010;5.418;2022-07-05T03:15:30;102119.0;;;31.74;27.63
59654;BME280;45496;52.010;5.418;2022-07-05T03:17:18;102127.0;;;31.78;27.73
59654;BME280;45496;52.010;5.418;2022-07-05T03:19:04;102122.0;;;31.8;27.54
59654;BME280;45496;52.010;5.418;2022-07-05T03:22:38;102125.0;;;31.71;27.64
59654;BME280;45496;52.010;5.418;2022-07-05T03:24:24;102122.0;;;31.71;27.7
59654;BME280;45496;52.010;5.418;2022-07-05T03:26:12;102124.0;;;32.22;27.11
59654;BME280;45496;52.010;5.418;2022-07-05T03:27:58;102126.0;;;32.22;27.11
59654;BME280;45496;52.010;5.418;2022-07-05T03:29:44;102125.0;;;32.24;27.22
59654;BME280;45496;52.010;5.418;2022-07-05T03:31:31;102127.0;;;31.96;27.71
59654;BME280;45496;52.010;5.418;2022-07-05T03:35:04;102125.0;;;32.03;27.46
59654;BME280;45496;52.010;5.418;2022-07-05T03:36:51;102130.0;;;31.77;27.74
59654;BME280;45496;52.010;5.418;2022-07-05T03:38:38;102133.0;;;31.79;27.88
59654;BME280;45496;52.010;5.418;2022-07-05T03:40:24;102126.0;;;31.7;28.02
59654;BME280;45496;52.010;5.418;2022-07-05T03:42:10;102126.0;;;31.98;27.85
59654;BME280;45496;52.010;5.418;2022-07-05T03:45:43;102130.0;;;32.14;27.56
59654;BME280;45496;52.010;5.418;2022-07-05T03:47:30;102130.0;;;32.14;27.59
59654;BME280;45496;52.010;5.418;2022-07-05T03:49:17;102125.0;;;32.12;27.3
59654;BME280;45496;52.010;5.418;2022-07-05T03:51:04;102130.0;;;31.69;28.2
59654;BME280;45496;52.010;5.418;2022-07-05T03:52:50;102130.0;;;30.71;29.51
59654;BME280;45496;52.010;5.418;2022-07-05T03:54:36;102138.0;;;30.83;29.42
59654;BME280;45496;52.010;5.418;2022-07-05T03:58:10;102139.0;;;31.24;28.89
59654;BME280;45496;52.010;5.418;2022-07-05T03:59:57;102145.0;;;31.77;28.16
59654;BME280;45496;52.010;5.418;2022-07-05T04:01:43;102142.0;;;31.86;28.11
59654;BME280;45496;52.010;5.418;2022-07-05T04:03:30;102147.0;;;31.73;28.29
59654;BME280;45496;52.010;5.418;2022-07-05T04:05:17;102144.0;;;31.76;28.32
59654;BME280;45496;52.010;5.418;2022-07-05T04:07:04;102143.0;;;31.88;28.15
59654;BME280;45496;52.010;5.418;2022-07-05T04:10:37;102141.0;;;31.99;28.09
59654;BME280;45496;52.010;5.418;2022-07-05T04:12:23;102138.0;;;32.1;27.98
59654;BME280;45496;52.010;5.418;2022-07-05T04:14:10;102131.0;;;32.18;27.85
59654;BME280;45496;52.010;5.418;2022-07-05T04:15:57;102134.0;;;32.31;27.75
59654;BME280;45496;52.010;5.418;2022-07-05T04:17:47;102132.0;;;32.37;27.73
59654;BME280;45496;52.010;5.418;2022-07-05T04:19:34;102143.0;;;32.47;27.83
59654;BME280;45496;52.010;5.418;2022-07-05T04:23:08;102143.0;;;32.83;27.18
59654;BME280;45496;52.010;5.418;2022-07-05T04:25:27;102144.0;;;32.39;27.67
59654;BME280;45496;52.010;5.418;2022-07-05T04:27:14;102147.0;;;31.55;28.97
59654;BME280;45496;52.010;5.418;2022-07-05T04:29:00;102146.0;;;31.79;28.67
59654;BME280;45496;52.010;5.418;2022-07-05T04:30:47;102144.0;;;32.19;28.2
59654;BME280;45496;52.010;5.418;2022-07-05T04:32:33;102143.0;;;32.4;27.92
59654;BME280;45496;52.010;5.418;2022-07-05T04:34:21;102144.0;;;32.43;27.92
59654;BME280;45496;52.010;5.418;2022-07-05T04:37:53;102146.0;;;32.39;28.27
59654;BME280;45496;52.010;5.418;2022-07-05T04:39:39;102146.0;;;32.8;27.67
59654;BME280;45496;52.010;5.418;2022-07-05T04:41:26;102145.0;;;32.71;27.77
59654;BME280;45496;52.010;5.418;2022-07-05T04:43:13;102140.0;;;33.03;27.28
59654;BME280;45496;52.010;5.418;2022-07-05T04:45:00;102144.0;;;33.1;27.16
59654;BME280;45496;52.010;5.418;2022-07-05T04:46:47;102146.0;;;32.85;27.55
59654;BME280;45496;52.010;5.418;2022-07-05T04:50:19;102147.0;;;32.85;27.59
59654;BME280;45496;52.010;5.418;2022-07-05T04:52:05;102151.0;;;33.22;27.1
59654;BME280;45496;52.010;5.418;2022-07-05T04:53:52;102151.0;;;33.39;26.95
59654;BME280;45496;52.010;5.418;2022-07-05T04:55:39;102150.0;;;33.03;27.56
59654;BME280;45496;52.010;5.418;2022-07-05T04:57:25;102155.0;;;33.08;27.49
59654;BME280;45496;52.010;5.418;2022-07-05T05:00:59;102159.0;;;33.76;26.68
59654;BME280;45496;52.010;5.418;2022-07-05T05:02:47;102157.0;;;33.79;26.44
59654;BME280;45496;52.010;5.418;2022-07-05T05:04:34;102160.0;;;33.28;27.13
59654;BME280;45496;52.010;5.418;2022-07-05T05:06:21;102162.0;;;33.19;27.3
59654;BME280;45496;52.010;5.418;2022-07-05T05:08:07;102163.0;;;32.81;27.94
59654;BME280;45496;52.010;5.418;2022-07-05T05:09:53;102163.0;;;32.47;28.69
59654;BME280;45496;52.010;5.418;2022-07-05T05:13:27;102156.0;;;32.25;29.0
59654;BME280;45496;52.010;5.418;2022-07-05T05:15:14;102157.0;;;32.53;28.77
59654;BME280;45496;52.010;5.418;2022-07-05T05:17:00;102155.0;;;32.53;28.77
59654;BME280;45496;52.010;5.418;2022-07-05T05:18:47;102152.0;;;32.49;28.91
59654;BME280;45496;52.010;5.418;2022-07-05T05:20:33;102150.0;;;32.3;29.47
59654;BME280;45496;52.010;5.418;2022-07-05T05:22:19;102155.0;;;32.35;29.67
59654;BME280;45496;52.010;5.418;2022-07-05T05:25:52;102155.0;;;32.44;29.7
59654;BME280;45496;52.010;5.418;2022-07-05T05:27:41;102155.0;;;32.57;29.78
59654;BME280;45496;52.010;5.418;2022-07-05T05:29:28;102160.0;;;33.25;28.9
59654;BME280;45496;52.010;5.418;2022-07-05T05:31:15;102159.0;;;33.65;28.4
59654;BME280;45496;52.010;5.418;2022-07-05T05:33:01;102160.0;;;33.86;28.03
59654;BME280;45496;52.010;5.418;2022-07-05T05:36:34;102160.0;;;32.96;29.24
59654;BME280;45496;52.010;5.418;2022-07-05T05:38:21;102162.0;;;32.6;30.0
59654;BME280;45496;52.010;5.418;2022-07-05T05:40:09;102165.0;;;32.56;30.26
59654;BME280;45496;52.010;5.418;2022-07-05T05:41:56;102172.0;;;32.9;29.52
59654;BME280;45496;52.010;5.418;2022-07-05T05:43:43;102173.0;;;32.78;30.16
59654;BME280;45496;52.010;5.418;2022-07-05T05:45:30;102166.0;;;33.37;29.66
59654;BME280;45496;52.010;5.418;2022-07-05T05:49:03;102168.0;;;33.71;29.4
59654;BME280;45496;52.010;5.418;2022-07-05T05:50:49;102167.0;;;34.31;28.24
59654;BME280;45496;52.010;5.418;2022-07-05T05:52:36;102170.0;;;33.86;28.45
59654;BME280;45496;52.010;5.418;2022-07-05T05:54:23;102173.0;;;33.57;29.08
59654;BME280;45496;52.010;5.418;2022-07-05T05:56:10;102172.0;;;33.49;29.46
59654;BME280;45496;52.010;5.418;2022-07-05T05:58:10;102171.0;;;34.94;27.47
59654;BME280;45496;52.010;5.418;2022-07-05T06:01:43;102180.0;;;34.36;28.52
59654;BME280;45496;52.010;5.418;2022-07-05T06:03:29;102170.0;;;34.89;27.94
59654;BME280;45496;52.010;5.418;2022-07-05T06:05:16;102176.0;;;34.1;28.96
59654;BME280;45496;52.010;5.418;2022-07-05T06:07:03;102178.0;;;34.28;29.13
59654;BME280;45496;52.010;5.418;2022-07-05T06:08:49;102177.0;;;33.67;29.62
59654;BME280;45496;52.010;5.418;2022-07-05T06:10:36;102180.0;;;34.29;29.18
59654;BME280;45496;52.010;5.418;2022-07-05T06:14:09;102180.0;;;34.35;29.12
59654;BME280;45496;52.010;5.418;2022-07-05T06:15:55;102185.0;;;34.43;29.07
59654;BME280;45496;52.010;5.418;2022-07-05T06:17:42;102186.0;;;33.32;30.27
59654;BME280;45496;52.010;5.418;2022-07-05T06:19:28;102188.0;;;34.54;28.78
59654;BME280;45496;52.010;5.418;2022-07-05T06:21:14;102194.0;;;33.71;29.65
59654;BME280;45496;52.010;5.418;2022-07-05T06:23:02;102192.0;;;34.21;29.25
59654;BME280;45496;52.010;5.418;2022-07-05T06:26:36;102189.0;;;34.67;28.44
59654;BME280;45496;52.010;5.418;2022-07-05T06:28:22;102193.0;;;34.17;28.95
59654;BME280;45496;52.010;5.418;2022-07-05T06:30:12;102197.0;;;32.62;30.91
59654;BME280;45496;52.010;5.418;2022-07-05T06:32:00;102199.0;;;33.67;29.75
59654;BME280;45496;52.010;5.418;2022-07-05T06:33:47;102199.0;;;34.76;28.54
59654;BME280;45496;52.010;5.418;2022-07-05T06:35:33;102199.0;;;35.0;28.1
59654;BME280;45496;52.010;5.418;2022-07-05T06:39:06;102203.0;;;33.3;29.66
59654;BME280;45496;52.010;5.418;2022-07-05T06:40:53;102207.0;;;33.53;29.75
59654;BME280;45496;52.010;5.418;2022-07-05T06:42:40;102203.0;;;34.96;28.25
59654;BME280;45496;52.010;5.418;2022-07-05T06:44:27;102205.0;;;36.0;26.69
59654;BME280;45496;52.010;5.418;2022-07-05T06:46:13;102205.0;;;35.06;28.0
59654;BME280;45496;52.010;5.418;2022-07-05T06:49:48;102207.0;;;35.89;27.08
59654;BME280;45496;52.010;5.418;2022-07-05T06:51:34;102205.0;;;36.82;26.09
59654;BME280;45496;52.010;5.418;2022-07-05T06:53:20;102209.0;;;37.53;25.45
59654;BME280;45496;52.010;5.418;2022-07-05T06:55:07;102211.0;;;37.39;25.0
59654;BME280;45496;52.010;5.418;2022-07-05T06:56:55;102214.0;;;36.33;25.92
59654;BME280;45496;52.010;5.418;2022-07-05T06:58:41;102219.0;;;34.39;28.34
59654;BME280;45496;52.010;5.418;2022-07-05T07:02:14;102214.0;;;34.97;27.36
59654;BME280;45496;52.010;5.418;2022-07-05T07:04:02;102211.0;;;35.37;26.79
59654;BME280;45496;52.010;5.418;2022-07-05T07:05:48;102213.0;;;36.07;26.31
59654;BME280;45496;52.010;5.418;2022-07-05T07:10:36;102215.0;;;37.74;24.39
59654;BME280;45496;52.010;5.418;2022-07-05T07:12:23;102219.0;;;37.5;24.76
59654;BME280;45496;52.010;5.418;2022-07-05T07:14:10;102215.0;;;36.97;24.11
59654;BME280;45496;52.010;5.418;2022-07-05T07:15:58;102219.0;;;37.78;23.36
59654;BME280;45496;52.010;5.418;2022-07-05T07:17:44;102215.0;;;37.33;23.64
59654;BME280;45496;52.010;5.418;2022-07-05T07:19:30;102218.0;;;37.79;22.49
59654;BME280;45496;52.010;5.418;2022-07-05T07:23:02;102219.0;;;37.58;23.16
59654;BME280;45496;52.010;5.418;2022-07-05T07:24:48;102221.0;;;38.06;22.67
59654;BME280;45496;52.010;5.418;2022-07-05T07:27:04;102221.0;;;37.86;22.58
59654;BME280;45496;52.010;5.418;2022-07-05T07:28:51;102222.0;;;37.56;23.28
59654;BME280;45496;52.010;5.418;2022-07-05T07:30:38;102222.0;;;37.85;22.84
59654;BME280;45496;52.010;5.418;2022-07-05T07:32:25;102227.0;;;37.58;23.41
59654;BME280;45496;52.010;5.418;2022-07-05T07:34:12;102225.0;;;37.33;22.97
59654;BME280;45496;52.010;5.418;2022-07-05T07:37:46;102224.0;;;37.5;22.96
59654;BME280;45496;52.010;5.418;2022-07-05T07:39:33;102224.0;;;37.46;22.85
59654;BME280;45496;52.010;5.418;2022-07-05T07:41:19;102220.0;;;35.85;24.77
59654;BME280;45496;52.010;5.418;2022-07-05T07:43:05;102219.0;;;35.83;25.48
59654;BME280;45496;52.010;5.418;2022-07-05T07:44:51;102221.0;;;35.85;25.38
59654;BME280;45496;52.010;5.418;2022-07-05T07:48:28;102227.0;;;36.36;24.63
59654;BME280;45496;52.010;5.418;2022-07-05T07:50:15;102230.0;;;36.9;24.84
59654;BME280;45496;52.010;5.418;2022-07-05T07:52:01;102223.0;;;36.64;24.61
59654;BME280;45496;52.010;5.418;2022-07-05T07:53:47;102224.0;;;35.69;25.71
59654;BME280;45496;52.010;5.418;2022-07-05T07:55:34;102230.0;;;33.69;26.72
59654;BME280;45496;52.010;5.418;2022-07-05T07:57:20;102224.0;;;36.07;24.7
59654;BME280;45496;52.010;5.418;2022-07-05T08:00:54;102231.0;;;35.32;25.33
59654;BME280;45496;52.010;5.418;2022-07-05T08:02:41;102233.0;;;37.31;23.1
59654;BME280;45496;52.010;5.418;2022-07-05T08:04:27;102236.0;;;38.08;22.8
59654;BME280;45496;52.010;5.418;2022-07-05T08:06:14;102238.0;;;37.18;23.75
59654;BME280;45496;52.010;5.418;2022-07-05T08:08:01;102243.0;;;37.64;23.35
59654;BME280;45496;52.010;5.418;2022-07-05T08:09:49;102240.0;;;37.46;23.58
59654;BME280;45496;52.010;5.418;2022-07-05T08:13:23;102237.0;;;38.35;22.52
59654;BME280;45496;52.010;5.418;2022-07-05T08:15:10;102238.0;;;38.51;22.37
59654;BME280;45496;52.010;5.418;2022-07-05T08:16:57;102240.0;;;38.6;22.39
59654;BME280;45496;52.010;5.418;2022-07-05T08:21:48;102238.0;;;38.82;22.42
59654;BME280;45496;52.010;5.418;2022-07-05T08:23:34;102245.0;;;37.08;23.66
59654;BME280;45496;52.010;5.418;2022-07-05T08:25:21;102245.0;;;35.78;24.93
59654;BME280;45496;52.010;5.418;2022-07-05T08:27:08;102241.0;;;38.1;23.5
59654;BME280;45496;52.010;5.418;2022-07-05T08:28:54;102237.0;;;37.89;23.12
59654;BME280;45496;52.010;5.418;2022-07-05T08:30:42;102238.0;;;38.03;23.5
59654;BME280;45496;52.010;5.418;2022-07-05T08:34:14;102234.0;;;37.85;23.42
59654;BME280;45496;52.010;5.418;2022-07-05T08:36:05;102241.0;;;37.67;22.88
59654;BME280;45496;52.010;5.418;2022-07-05T08:37:53;102239.0;;;38.21;22.46
59654;BME280;45496;52.010;5.418;2022-07-05T08:39:39;102238.0;;;37.61;23.31
59654;BME280;45496;52.010;5.418;2022-07-05T08:41:25;102231.0;;;37.33;24.67
59654;BME280;45496;52.010;5.418;2022-07-05T08:43:13;102236.0;;;35.68;25.33
59654;BME280;45496;52.010;5.418;2022-07-05T08:46:50;102230.0;;;36.49;24.44
59654;BME280;45496;52.010;5.418;2022-07-05T08:48:43;102232.0;;;36.64;24.14
59654;BME280;45496;52.010;5.418;2022-07-05T08:50:33;102231.0;;;38.46;22.75
59654;BME280;45496;52.010;5.418;2022-07-05T08:52:22;102230.0;;;38.36;22.35
59654;BME280;45496;52.010;5.418;2022-07-05T08:54:09;102231.0;;;37.83;22.73
59654;BME280;45496;52.010;5.418;2022-07-05T08:55:58;102230.0;;;37.25;23.18
59654;BME280;45496;52.010;5.418;2022-07-05T08:59:32;102225.0;;;37.69;23.39
59654;BME280;45496;52.010;5.418;2022-07-05T09:01:19;102228.0;;;37.9;23.06
59654;BME280;45496;52.010;5.418;2022-07-05T09:03:07;102228.0;;;36.87;23.73
59654;BME280;45496;52.010;5.418;2022-07-05T09:04:55;102222.0;;;37.42;23.0
59654;BME280;45496;52.010;5.418;2022-07-05T09:06:45;102230.0;;;36.31;23.95
59654;BME280;45496;52.010;5.418;2022-07-05T09:08:35;102225.0;;;37.81;23.3
59654;BME280;45496;52.010;5.418;2022-07-05T09:10:24;102230.0;;;36.0;24.23
59654;BME280;45496;52.010;5.418;2022-07-05T09:14:02;102231.0;;;34.64;24.75
59654;BME280;45496;52.010;5.418;2022-07-05T09:15:51;102232.0;;;36.04;23.44
59654;BME280;45496;52.010;5.418;2022-07-05T09:17:42;102238.0;;;36.33;23.79
59654;BME280;45496;52.010;5.418;2022-07-05T09:19:30;102241.0;;;34.08;25.93
59654;BME280;45496;52.010;5.418;2022-07-05T09:21:19;102241.0;;;34.58;25.11
59654;BME280;45496;52.010;5.418;2022-07-05T09:23:06;102237.0;;;34.56;25.19
59654;BME280;45496;52.010;5.418;2022-07-05T09:26:40;102235.0;;;35.07;24.15
59654;BME280;45496;52.010;5.418;2022-07-05T09:28:28;102234.0;;;35.72;24.38
59654;BME280;45496;52.010;5.418;2022-07-05T09:30:24;102237.0;;;38.22;21.87
59654;BME280;45496;52.010;5.418;2022-07-05T09:32:22;102237.0;;;37.78;21.41
59654;BME280;45496;52.010;5.418;2022-07-05T09:34:10;102239.0;;;36.71;23.54
59654;BME280;45496;52.010;5.418;2022-07-05T09:35:58;102238.0;;;36.93;22.82
59654;BME280;45496;52.010;5.418;2022-07-05T09:37:44;102236.0;;;34.96;24.46
59654;BME280;45496;52.010;5.418;2022-07-05T09:41:25;102237.0;;;34.96;23.92
59654;BME280;45496;52.010;5.418;2022-07-05T09:43:12;102238.0;;;36.28;22.55
59654;BME280;45496;52.010;5.418;2022-07-05T09:45:00;102237.0;;;37.28;21.59
59654;BME280;45496;52.010;5.418;2022-07-05T09:46:46;102240.0;;;37.67;20.67
59654;BME280;45496;52.010;5.418;2022-07-05T09:48:34;102242.0;;;36.68;21.53
59654;BME280;45496;52.010;5.418;2022-07-05T09:50:36;102237.0;;;35.65;21.81
59654;BME280;45496;52.010;5.418;2022-07-05T09:52:28;102237.0;;;36.46;21.86
59654;BME280;45496;52.010;5.418;2022-07-05T09:56:01;102232.0;;;38.24;21.04
59654;BME280;45496;52.010;5.418;2022-07-05T09:57:51;102236.0;;;37.42;21.55
59654;BME280;45496;52.010;5.418;2022-07-05T09:59:37;102234.0;;;36.29;21.74
59654;BME280;45496;52.010;5.418;2022-07-05T10:01:24;102236.0;;;36.35;20.8
59654;BME280;45496;52.010;5.418;2022-07-05T10:03:11;102238.0;;;35.21;21.58
59654;BME280;45496;52.010;5.418;2022-07-05T10:05:08;102242.0;;;34.67;22.7
59654;BME280;45496;52.010;5.418;2022-07-05T10:06:56;102233.0;;;35.79;22.44
59654;BME280;45496;52.010;5.418;2022-07-05T10:10:32;102228.0;;;37.17;20.22
59654;BME280;45496;52.010;5.418;2022-07-05T10:12:19;102232.0;;;35.92;20.98
59654;BME280;45496;52.010;5.418;2022-07-05T10:14:10;102237.0;;;36.49;21.9
59654;BME280;45496;52.010;5.418;2022-07-05T10:16:00;102243.0;;;37.74;20.37
59654;BME280;45496;52.010;5.418;2022-07-05T10:17:51;102232.0;;;39.6;18.78
59654;BME280;45496;52.010;5.418;2022-07-05T10:19:49;102238.0;;;39.87;18.68
59654;BME280;45496;52.010;5.418;2022-07-05T10:21:39;102238.0;;;39.07;18.63
59654;BME280;45496;52.010;5.418;2022-07-05T10:25:14;102237.0;;;39.08;18.06
59654;BME280;45496;52.010;5.418;2022-07-05T10:27:05;102231.0;;;39.49;18.02
59654;BME280;45496;52.010;5.418;2022-07-05T10:28:53;102231.0;;;39.35;18.16
59654;BME280;45496;52.010;5.418;2022-07-05T10:30:40;102231.0;;;39.67;18.06
59654;BME280;45496;52.010;5.418;2022-07-05T10:32:28;102228.0;;;39.43;17.81
59654;BME280;45496;52.010;5.418;2022-07-05T10:34:15;102228.0;;;38.53;17.98
59654;BME280;45496;52.010;5.418;2022-07-05T10:37:51;102232.0;;;39.85;17.91
59654;BME280;45496;52.010;5.418;2022-07-05T10:39:39;102233.0;;;38.93;18.14
59654;BME280;45496;52.010;5.418;2022-07-05T10:41:27;102230.0;;;38.39;18.43
59654;BME280;45496;52.010;5.418;2022-07-05T10:43:15;102232.0;;;38.78;19.18
59654;BME280;45496;52.010;5.418;2022-07-05T10:45:03;102231.0;;;40.08;18.8
59654;BME280;45496;52.010;5.418;2022-07-05T10:47:11;102230.0;;;39.49;17.88
59654;BME280;45496;52.010;5.418;2022-07-05T10:49:10;102232.0;;;39.4;18.78
59654;BME280;45496;52.010;5.418;2022-07-05T10:50:57;102237.0;;;40.57;17.48
59654;BME280;45496;52.010;5.418;2022-07-05T10:55:17;102230.0;;;40.32;17.72
59654;BME280;45496;52.010;5.418;2022-07-05T10:57:23;102244.0;;;38.26;18.41
59654;BME280;45496;52.010;5.418;2022-07-05T10:59:11;102237.0;;;37.11;20.56
59654;BME280;45496;52.010;5.418;2022-07-05T11:03:38;102232.0;;;39.46;18.45
59654;BME280;45496;52.010;5.418;2022-07-05T11:05:26;102237.0;;;38.06;19.52
59654;BME280;45496;52.010;5.418;2022-07-05T11:09:16;102235.0;;;36.96;21.09
59654;BME280;45496;52.010;5.418;2022-07-05T11:11:11;102230.0;;;39.47;18.38
59654;BME280;45496;52.010;5.418;2022-07-05T11:12:58;102238.0;;;37.64;20.64
59654;BME280;45496;52.010;5.418;2022-07-05T11:14:45;102240.0;;;38.39;19.61